sensor_id;sensor_type;location;lat;lon;timestamp;P1;durP1;ratioP1;P2;durP2;ratioP2
63201;SDS011;49296;48.188;11.566;2024-03-02T00:00:27;10.77;;;7.15;;
63201;SDS011;49296;48.188;11.566;2024-03-02T00:02:54;11.45;;;7.63;;
63201;SDS011;49296;48.188;11.566;2024-03-02T00:05:21;11.32;;;8.02;;
63201;SDS011;49296;48.188;11.566;2024-03-02T00:07:53;10.98;;;7.60;;
63201;SDS011;49296;48.188;11.566;2024-03-02T00:10:22;10.18;;;7.13;;
63201;SDS011;49296;48.188;11.566;2024-03-02T00:12:54;12.43;;;7.95;;
63201;SDS011;49296;48.188;11.566;2024-03-02T00:15:37;11.23;;;7.65;;
63201;SDS011;49296;48.188;11.566;2024-03-02T00:18:08;10.63;;;7.38;;
63201;SDS011;49296;48.188;11.566;2024-03-02T00:20:37;12.40;;;7.35;;
63201;SDS011;49296;48.188;11.566;2024-03-02T00:23:06;10.07;;;7.63;;
63201;SDS011;49296;48.188;11.566;2024-03-02T00:25:40;11.40;;;8.65;;
63201;SDS011;49296;48.188;11.566;2024-03-02T00:28:13;13.27;;;7.55;;
63201;SDS011;49296;48.188;11.566;2024-03-02T00:33:30;12.38;;;7.82;;
63201;SDS011;49296;48.188;11.566;2024-03-02T00:35:58;11.25;;;8.27;;
63201;SDS011;49296;48.188;11.566;2024-03-02T00:38:27;12.32;;;8.63;;
63201;SDS011;49296;48.188;11.566;2024-03-02T00:40:55;11.73;;;8.02;;
63201;SDS011;49296;48.188;11.566;2024-03-02T00:43:41;11.77;;;8.80;;
63201;SDS011;49296;48.188;11.566;2024-03-02T00:46:10;12.10;;;8.05;;
63201;SDS011;49296;48.188;11.566;2024-03-02T00:48:38;11.70;;;7.25;;
63201;SDS011;49296;48.188;11.566;2024-03-02T00:51:12;10.85;;;7.70;;
63201;SDS011;49296;48.188;11.566;2024-03-02T00:53:40;11.65;;;6.95;;
63201;SDS011;49296;48.188;11.566;2024-03-02T00:56:07;10.10;;;7.43;;
63201;SDS011;49296;48.188;11.566;2024-03-02T00:58:36;12.55;;;8.25;;
63201;SDS011;49296;48.188;11.566;2024-03-02T01:01:03;10.27;;;7.75;;
63201;SDS011;49296;48.188;11.566;2024-03-02T01:03:30;12.57;;;7.57;;
63201;SDS011;49296;48.188;11.566;2024-03-02T01:05:57;12.48;;;7.63;;
63201;SDS011;49296;48.188;11.566;2024-03-02T01:08:24;10.98;;;7.70;;
63201;SDS011;49296;48.188;11.566;2024-03-02T01:10:53;10.95;;;7.70;;
63201;SDS011;49296;48.188;11.566;2024-03-02T01:13:19;11.80;;;7.65;;
63201;SDS011;49296;48.188;11.566;2024-03-02T01:15:46;12.65;;;8.93;;
63201;SDS011;49296;48.188;11.566;2024-03-02T01:18:13;12.52;;;7.70;;
63201;SDS011;49296;48.188;11.566;2024-03-02T01:20:39;10.85;;;7.28;;
63201;SDS011;49296;48.188;11.566;2024-03-02T01:23:06;11.15;;;7.68;;
63201;SDS011;49296;48.188;11.566;2024-03-02T01:25:33;12.23;;;8.07;;
63201;SDS011;49296;48.188;11.566;2024-03-02T01:28:02;10.60;;;7.38;;
63201;SDS011;49296;48.188;11.566;2024-03-02T01:30:29;11.90;;;7.78;;
63201;SDS011;49296;48.188;11.566;2024-03-02T01:32:55;11.02;;;7.20;;
63201;SDS011;49296;48.188;11.566;2024-03-02T01:35:24;12.20;;;7.55;;
63201;SDS011;49296;48.188;11.566;2024-03-02T01:37:51;11.63;;;7.72;;
63201;SDS011;49296;48.188;11.566;2024-03-02T01:40:18;11.25;;;7.60;;
63201;SDS011;49296;48.188;11.566;2024-03-02T01:42:45;11.05;;;7.20;;
63201;SDS011;49296;48.188;11.566;2024-03-02T01:45:13;12.35;;;7.70;;
63201;SDS011;49296;48.188;11.566;2024-03-02T01:47:40;11.88;;;8.35;;
63201;SDS011;49296;48.188;11.566;2024-03-02T01:50:07;11.77;;;7.53;;
63201;SDS011;49296;48.188;11.566;2024-03-02T01:52:36;12.15;;;7.88;;
63201;SDS011;49296;48.188;11.566;2024-03-02T01:55:03;11.80;;;7.85;;
63201;SDS011;49296;48.188;11.566;2024-03-02T01:57:31;13.73;;;9.02;;
63201;SDS011;49296;48.188;11.566;2024-03-02T01:59:57;10.68;;;7.43;;
63201;SDS011;49296;48.188;11.566;2024-03-02T02:02:26;12.55;;;8.77;;
63201;SDS011;49296;48.188;11.566;2024-03-02T02:04:53;13.38;;;8.07;;
63201;SDS011;49296;48.188;11.566;2024-03-02T02:07:19;11.07;;;7.70;;
63201;SDS011;49296;48.188;11.566;2024-03-02T02:09:46;10.98;;;7.28;;
63201;SDS011;49296;48.188;11.566;2024-03-02T02:12:13;11.98;;;7.95;;
63201;SDS011;49296;48.188;11.566;2024-03-02T02:14:46;11.05;;;6.95;;
63201;SDS011;49296;48.188;11.566;2024-03-02T02:17:13;10.02;;;7.72;;
63201;SDS011;49296;48.188;11.566;2024-03-02T02:19:42;10.25;;;6.93;;
63201;SDS011;49296;48.188;11.566;2024-03-02T02:22:10;11.10;;;7.65;;
63201;SDS011;49296;48.188;11.566;2024-03-02T02:24:39;9.95;;;6.97;;
63201;SDS011;49296;48.188;11.566;2024-03-02T02:27:06;10.18;;;7.00;;
63201;SDS011;49296;48.188;11.566;2024-03-02T02:29:32;12.45;;;8.27;;
63201;SDS011;49296;48.188;11.566;2024-03-02T02:31:59;11.30;;;7.30;;
63201;SDS011;49296;48.188;11.566;2024-03-02T02:34:26;10.57;;;7.57;;
63201;SDS011;49296;48.188;11.566;2024-03-02T02:36:55;11.30;;;7.53;;
63201;SDS011;49296;48.188;11.566;2024-03-02T02:39:24;11.18;;;7.70;;
63201;SDS011;49296;48.188;11.566;2024-03-02T02:41:50;10.98;;;7.70;;
63201;SDS011;49296;48.188;11.566;2024-03-02T02:44:17;11.65;;;7.57;;
63201;SDS011;49296;48.188;11.566;2024-03-02T02:46:44;10.77;;;7.30;;
63201;SDS011;49296;48.188;11.566;2024-03-02T02:49:10;9.73;;;6.85;;
63201;SDS011;49296;48.188;11.566;2024-03-02T02:51:37;10.70;;;7.00;;
63201;SDS011;49296;48.188;11.566;2024-03-02T02:54:04;12.15;;;7.97;;
63201;SDS011;49296;48.188;11.566;2024-03-02T02:56:32;10.15;;;6.30;;
63201;SDS011;49296;48.188;11.566;2024-03-02T02:58:58;10.88;;;7.18;;
63201;SDS011;49296;48.188;11.566;2024-03-02T03:01:25;9.25;;;6.28;;
63201;SDS011;49296;48.188;11.566;2024-03-02T03:03:52;11.38;;;7.55;;
63201;SDS011;49296;48.188;11.566;2024-03-02T03:06:19;9.93;;;6.70;;
63201;SDS011;49296;48.188;11.566;2024-03-02T03:08:45;9.93;;;6.20;;
63201;SDS011;49296;48.188;11.566;2024-03-02T03:11:12;11.70;;;7.05;;
63201;SDS011;49296;48.188;11.566;2024-03-02T03:13:40;11.10;;;6.72;;
63201;SDS011;49296;48.188;11.566;2024-03-02T03:16:07;10.18;;;6.68;;
63201;SDS011;49296;48.188;11.566;2024-03-02T03:18:34;9.45;;;6.20;;
63201;SDS011;49296;48.188;11.566;2024-03-02T03:21:01;10.55;;;6.97;;
63201;SDS011;49296;48.188;11.566;2024-03-02T03:23:28;10.70;;;7.38;;
63201;SDS011;49296;48.188;11.566;2024-03-02T03:25:54;10.48;;;7.00;;
63201;SDS011;49296;48.188;11.566;2024-03-02T03:28:21;10.43;;;7.05;;
63201;SDS011;49296;48.188;11.566;2024-03-02T03:30:49;10.75;;;7.20;;
63201;SDS011;49296;48.188;11.566;2024-03-02T03:33:16;10.13;;;7.00;;
63201;SDS011;49296;48.188;11.566;2024-03-02T03:35:43;11.70;;;7.22;;
63201;SDS011;49296;48.188;11.566;2024-03-02T03:38:09;10.90;;;6.97;;
63201;SDS011;49296;48.188;11.566;2024-03-02T03:40:37;11.45;;;7.03;;
63201;SDS011;49296;48.188;11.566;2024-03-02T03:43:03;11.00;;;7.20;;
63201;SDS011;49296;48.188;11.566;2024-03-02T03:45:30;10.48;;;7.40;;
63201;SDS011;49296;48.188;11.566;2024-03-02T03:47:58;12.07;;;7.22;;
63201;SDS011;49296;48.188;11.566;2024-03-02T03:50:25;10.10;;;7.40;;
63201;SDS011;49296;48.188;11.566;2024-03-02T03:52:52;10.63;;;8.02;;
63201;SDS011;49296;48.188;11.566;2024-03-02T03:55:18;11.00;;;7.60;;
63201;SDS011;49296;48.188;11.566;2024-03-02T03:57:45;12.50;;;7.60;;
63201;SDS011;49296;48.188;11.566;2024-03-02T04:00:12;9.73;;;7.25;;
63201;SDS011;49296;48.188;11.566;2024-03-02T04:02:39;11.35;;;7.90;;
63201;SDS011;49296;48.188;11.566;2024-03-02T04:05:08;11.40;;;7.85;;
63201;SDS011;49296;48.188;11.566;2024-03-02T04:07:35;11.27;;;7.78;;
63201;SDS011;49296;48.188;11.566;2024-03-02T04:10:08;11.18;;;7.80;;
63201;SDS011;49296;48.188;11.566;2024-03-02T04:12:35;11.35;;;7.40;;
63201;SDS011;49296;48.188;11.566;2024-03-02T04:15:03;11.25;;;8.05;;
63201;SDS011;49296;48.188;11.566;2024-03-02T04:17:31;11.43;;;8.25;;
63201;SDS011;49296;48.188;11.566;2024-03-02T04:20:00;10.40;;;7.65;;
63201;SDS011;49296;48.188;11.566;2024-03-02T04:22:32;10.82;;;7.78;;
63201;SDS011;49296;48.188;11.566;2024-03-02T04:24:59;12.05;;;8.18;;
63201;SDS011;49296;48.188;11.566;2024-03-02T04:27:26;11.68;;;7.88;;
63201;SDS011;49296;48.188;11.566;2024-03-02T04:29:53;10.30;;;7.00;;
63201;SDS011;49296;48.188;11.566;2024-03-02T04:32:20;12.43;;;8.32;;
63201;SDS011;49296;48.188;11.566;2024-03-02T04:34:46;11.15;;;8.23;;
63201;SDS011;49296;48.188;11.566;2024-03-02T04:37:13;12.38;;;8.00;;
63201;SDS011;49296;48.188;11.566;2024-03-02T04:39:41;12.75;;;7.68;;
63201;SDS011;49296;48.188;11.566;2024-03-02T04:42:08;13.00;;;8.55;;
63201;SDS011;49296;48.188;11.566;2024-03-02T04:44:35;14.60;;;9.05;;
63201;SDS011;49296;48.188;11.566;2024-03-02T04:47:03;12.52;;;8.73;;
63201;SDS011;49296;48.188;11.566;2024-03-02T04:49:29;13.48;;;8.50;;
63201;SDS011;49296;48.188;11.566;2024-03-02T04:51:56;14.77;;;8.63;;
63201;SDS011;49296;48.188;11.566;2024-03-02T04:54:23;14.57;;;8.63;;
63201;SDS011;49296;48.188;11.566;2024-03-02T04:56:52;13.85;;;8.98;;
63201;SDS011;49296;48.188;11.566;2024-03-02T04:59:17;12.93;;;8.88;;
63201;SDS011;49296;48.188;11.566;2024-03-02T05:01:44;12.55;;;9.10;;
63201;SDS011;49296;48.188;11.566;2024-03-02T05:04:12;14.00;;;8.77;;
63201;SDS011;49296;48.188;11.566;2024-03-02T05:06:39;12.80;;;9.32;;
63201;SDS011;49296;48.188;11.566;2024-03-02T05:09:06;14.35;;;9.40;;
63201;SDS011;49296;48.188;11.566;2024-03-02T05:11:33;14.43;;;8.70;;
63201;SDS011;49296;48.188;11.566;2024-03-02T05:14:36;14.90;;;8.75;;
63201;SDS011;49296;48.188;11.566;2024-03-02T05:17:03;12.57;;;8.98;;
63201;SDS011;49296;48.188;11.566;2024-03-02T05:19:30;15.20;;;11.10;;
63201;SDS011;49296;48.188;11.566;2024-03-02T05:21:57;14.23;;;10.00;;
63201;SDS011;49296;48.188;11.566;2024-03-02T05:24:24;15.02;;;10.07;;
63201;SDS011;49296;48.188;11.566;2024-03-02T05:26:52;13.32;;;8.85;;
63201;SDS011;49296;48.188;11.566;2024-03-02T05:29:19;13.82;;;9.00;;
63201;SDS011;49296;48.188;11.566;2024-03-02T05:31:47;14.13;;;8.82;;
63201;SDS011;49296;48.188;11.566;2024-03-02T05:34:13;13.60;;;9.52;;
63201;SDS011;49296;48.188;11.566;2024-03-02T05:36:40;13.95;;;10.00;;
63201;SDS011;49296;48.188;11.566;2024-03-02T05:39:07;13.13;;;8.90;;
63201;SDS011;49296;48.188;11.566;2024-03-02T05:41:35;13.65;;;8.80;;
63201;SDS011;49296;48.188;11.566;2024-03-02T05:44:03;12.27;;;8.27;;
63201;SDS011;49296;48.188;11.566;2024-03-02T05:46:30;13.98;;;8.93;;
63201;SDS011;49296;48.188;11.566;2024-03-02T05:48:58;13.35;;;9.10;;
63201;SDS011;49296;48.188;11.566;2024-03-02T05:51:25;12.88;;;9.05;;
63201;SDS011;49296;48.188;11.566;2024-03-02T05:53:51;12.63;;;9.13;;
63201;SDS011;49296;48.188;11.566;2024-03-02T05:56:18;13.73;;;9.45;;
63201;SDS011;49296;48.188;11.566;2024-03-02T05:58:45;15.10;;;9.80;;
63201;SDS011;49296;48.188;11.566;2024-03-02T06:01:22;13.38;;;9.20;;
63201;SDS011;49296;48.188;11.566;2024-03-02T06:03:53;15.32;;;10.23;;
63201;SDS011;49296;48.188;11.566;2024-03-02T06:06:21;13.13;;;9.05;;
63201;SDS011;49296;48.188;11.566;2024-03-02T06:08:48;14.40;;;9.70;;
63201;SDS011;49296;48.188;11.566;2024-03-02T06:11:15;15.73;;;9.43;;
63201;SDS011;49296;48.188;11.566;2024-03-02T06:13:42;15.02;;;9.30;;
63201;SDS011;49296;48.188;11.566;2024-03-02T06:16:08;13.75;;;9.55;;
63201;SDS011;49296;48.188;11.566;2024-03-02T06:18:35;13.98;;;9.27;;
63201;SDS011;49296;48.188;11.566;2024-03-02T06:21:02;13.30;;;8.82;;
63201;SDS011;49296;48.188;11.566;2024-03-02T06:23:30;12.57;;;8.93;;
63201;SDS011;49296;48.188;11.566;2024-03-02T06:25:57;13.30;;;9.27;;
63201;SDS011;49296;48.188;11.566;2024-03-02T06:28:24;15.60;;;9.77;;
63201;SDS011;49296;48.188;11.566;2024-03-02T06:30:50;14.85;;;10.27;;
63201;SDS011;49296;48.188;11.566;2024-03-02T06:33:17;14.13;;;9.43;;
63201;SDS011;49296;48.188;11.566;2024-03-02T06:35:44;13.68;;;9.80;;
63201;SDS011;49296;48.188;11.566;2024-03-02T06:38:11;16.70;;;11.05;;
63201;SDS011;49296;48.188;11.566;2024-03-02T06:40:39;14.75;;;9.93;;
63201;SDS011;49296;48.188;11.566;2024-03-02T06:43:05;14.25;;;9.90;;
63201;SDS011;49296;48.188;11.566;2024-03-02T06:45:32;16.73;;;10.75;;
63201;SDS011;49296;48.188;11.566;2024-03-02T06:47:59;16.38;;;10.05;;
63201;SDS011;49296;48.188;11.566;2024-03-02T06:50:26;16.25;;;10.25;;
63201;SDS011;49296;48.188;11.566;2024-03-02T06:52:53;14.95;;;9.93;;
63201;SDS011;49296;48.188;11.566;2024-03-02T06:55:21;15.80;;;11.07;;
63201;SDS011;49296;48.188;11.566;2024-03-02T06:57:49;16.17;;;10.32;;
63201;SDS011;49296;48.188;11.566;2024-03-02T07:00:15;16.65;;;10.98;;
63201;SDS011;49296;48.188;11.566;2024-03-02T07:02:45;16.92;;;11.43;;
63201;SDS011;49296;48.188;11.566;2024-03-02T07:05:12;14.50;;;10.35;;
63201;SDS011;49296;48.188;11.566;2024-03-02T07:07:39;17.38;;;10.85;;
63201;SDS011;49296;48.188;11.566;2024-03-02T07:10:06;15.65;;;10.48;;
63201;SDS011;49296;48.188;11.566;2024-03-02T07:12:33;15.70;;;9.68;;
63201;SDS011;49296;48.188;11.566;2024-03-02T07:15:01;15.38;;;10.32;;
63201;SDS011;49296;48.188;11.566;2024-03-02T07:17:50;14.45;;;9.63;;
63201;SDS011;49296;48.188;11.566;2024-03-02T07:20:16;15.95;;;10.27;;
63201;SDS011;49296;48.188;11.566;2024-03-02T07:22:43;14.88;;;9.88;;
63201;SDS011;49296;48.188;11.566;2024-03-02T07:25:10;14.32;;;10.00;;
63201;SDS011;49296;48.188;11.566;2024-03-02T07:27:37;13.27;;;9.02;;
63201;SDS011;49296;48.188;11.566;2024-03-02T07:30:05;14.82;;;10.20;;
63201;SDS011;49296;48.188;11.566;2024-03-02T07:32:33;13.43;;;10.02;;
63201;SDS011;49296;48.188;11.566;2024-03-02T07:35:00;13.43;;;10.13;;
63201;SDS011;49296;48.188;11.566;2024-03-02T07:37:28;12.95;;;9.55;;
63201;SDS011;49296;48.188;11.566;2024-03-02T07:39:55;13.65;;;9.98;;
63201;SDS011;49296;48.188;11.566;2024-03-02T07:42:22;15.48;;;10.50;;
63201;SDS011;49296;48.188;11.566;2024-03-02T07:44:49;14.23;;;10.43;;
63201;SDS011;49296;48.188;11.566;2024-03-02T07:47:17;17.45;;;10.38;;
63201;SDS011;49296;48.188;11.566;2024-03-02T07:49:44;16.50;;;11.25;;
63201;SDS011;49296;48.188;11.566;2024-03-02T07:52:11;16.63;;;11.68;;
63201;SDS011;49296;48.188;11.566;2024-03-02T07:54:37;15.65;;;10.40;;
63201;SDS011;49296;48.188;11.566;2024-03-02T07:57:04;17.88;;;11.95;;
63201;SDS011;49296;48.188;11.566;2024-03-02T07:59:31;18.67;;;12.50;;
63201;SDS011;49296;48.188;11.566;2024-03-02T08:01:58;17.63;;;11.30;;
63201;SDS011;49296;48.188;11.566;2024-03-02T08:04:27;16.70;;;11.40;;
63201;SDS011;49296;48.188;11.566;2024-03-02T08:06:54;19.77;;;12.57;;
63201;SDS011;49296;48.188;11.566;2024-03-02T08:09:20;19.02;;;12.32;;
63201;SDS011;49296;48.188;11.566;2024-03-02T08:11:47;17.85;;;11.73;;
63201;SDS011;49296;48.188;11.566;2024-03-02T08:14:15;16.40;;;11.75;;
63201;SDS011;49296;48.188;11.566;2024-03-02T08:16:42;20.65;;;13.43;;
63201;SDS011;49296;48.188;11.566;2024-03-02T08:19:09;18.27;;;12.32;;
63201;SDS011;49296;48.188;11.566;2024-03-02T08:21:37;18.45;;;12.75;;
63201;SDS011;49296;48.188;11.566;2024-03-02T08:24:04;18.55;;;11.98;;
63201;SDS011;49296;48.188;11.566;2024-03-02T08:26:31;19.10;;;13.48;;
63201;SDS011;49296;48.188;11.566;2024-03-02T08:28:58;18.42;;;12.43;;
63201;SDS011;49296;48.188;11.566;2024-03-02T08:31:26;19.98;;;12.38;;
63201;SDS011;49296;48.188;11.566;2024-03-02T08:33:53;19.08;;;12.63;;
63201;SDS011;49296;48.188;11.566;2024-03-02T08:36:20;18.67;;;11.30;;
63201;SDS011;49296;48.188;11.566;2024-03-02T08:38:49;18.08;;;11.52;;
63201;SDS011;49296;48.188;11.566;2024-03-02T08:41:16;17.20;;;11.10;;
63201;SDS011;49296;48.188;11.566;2024-03-02T08:43:43;18.88;;;12.10;;
63201;SDS011;49296;48.188;11.566;2024-03-02T08:46:10;20.80;;;11.52;;
63201;SDS011;49296;48.188;11.566;2024-03-02T08:48:37;15.43;;;10.55;;
63201;SDS011;49296;48.188;11.566;2024-03-02T08:51:03;16.65;;;10.38;;
63201;SDS011;49296;48.188;11.566;2024-03-02T08:53:32;15.63;;;10.35;;
63201;SDS011;49296;48.188;11.566;2024-03-02T08:56:00;16.63;;;10.98;;
63201;SDS011;49296;48.188;11.566;2024-03-02T08:58:30;15.70;;;10.95;;
63201;SDS011;49296;48.188;11.566;2024-03-02T09:00:57;17.20;;;11.57;;
63201;SDS011;49296;48.188;11.566;2024-03-02T09:03:24;17.33;;;11.80;;
63201;SDS011;49296;48.188;11.566;2024-03-02T09:05:51;19.02;;;12.00;;
63201;SDS011;49296;48.188;11.566;2024-03-02T09:08:17;17.15;;;11.20;;
63201;SDS011;49296;48.188;11.566;2024-03-02T09:10:44;17.67;;;12.05;;
63201;SDS011;49296;48.188;11.566;2024-03-02T09:13:12;17.73;;;12.10;;
63201;SDS011;49296;48.188;11.566;2024-03-02T09:15:39;18.00;;;11.20;;
63201;SDS011;49296;48.188;11.566;2024-03-02T09:18:05;18.27;;;12.43;;
63201;SDS011;49296;48.188;11.566;2024-03-02T09:20:32;19.70;;;12.18;;
63201;SDS011;49296;48.188;11.566;2024-03-02T09:22:58;18.20;;;10.95;;
63201;SDS011;49296;48.188;11.566;2024-03-02T09:25:25;17.33;;;11.50;;
63201;SDS011;49296;48.188;11.566;2024-03-02T09:27:52;16.60;;;10.95;;
63201;SDS011;49296;48.188;11.566;2024-03-02T09:30:20;17.70;;;11.50;;
63201;SDS011;49296;48.188;11.566;2024-03-02T09:32:47;20.70;;;12.48;;
63201;SDS011;49296;48.188;11.566;2024-03-02T09:35:14;18.70;;;12.45;;
63201;SDS011;49296;48.188;11.566;2024-03-02T09:37:41;17.10;;;11.07;;
63201;SDS011;49296;48.188;11.566;2024-03-02T09:40:08;18.38;;;11.93;;
63201;SDS011;49296;48.188;11.566;2024-03-02T09:42:35;17.05;;;11.35;;
63201;SDS011;49296;48.188;11.566;2024-03-02T09:45:03;18.10;;;12.88;;
63201;SDS011;49296;48.188;11.566;2024-03-02T09:47:32;16.13;;;11.32;;
63201;SDS011;49296;48.188;11.566;2024-03-02T09:49:59;15.60;;;9.65;;
63201;SDS011;49296;48.188;11.566;2024-03-02T09:52:26;16.85;;;10.30;;
63201;SDS011;49296;48.188;11.566;2024-03-02T09:54:53;16.98;;;10.45;;
63201;SDS011;49296;48.188;11.566;2024-03-02T09:57:20;17.88;;;10.68;;
63201;SDS011;49296;48.188;11.566;2024-03-02T09:59:46;14.40;;;10.40;;
63201;SDS011;49296;48.188;11.566;2024-03-02T10:02:13;16.25;;;10.98;;
63201;SDS011;49296;48.188;11.566;2024-03-02T10:04:41;18.67;;;10.77;;
63201;SDS011;49296;48.188;11.566;2024-03-02T10:07:10;17.25;;;11.90;;
63201;SDS011;49296;48.188;11.566;2024-03-02T10:09:38;18.17;;;11.27;;
63201;SDS011;49296;48.188;11.566;2024-03-02T10:12:06;18.25;;;11.80;;
63201;SDS011;49296;48.188;11.566;2024-03-02T10:14:34;18.77;;;11.05;;
63201;SDS011;49296;48.188;11.566;2024-03-02T10:17:02;19.23;;;11.55;;
63201;SDS011;49296;48.188;11.566;2024-03-02T10:19:30;16.55;;;11.65;;
63201;SDS011;49296;48.188;11.566;2024-03-02T10:21:59;19.67;;;11.27;;
63201;SDS011;49296;48.188;11.566;2024-03-02T10:24:27;21.25;;;12.13;;
63201;SDS011;49296;48.188;11.566;2024-03-02T10:27:01;17.95;;;10.30;;
63201;SDS011;49296;48.188;11.566;2024-03-02T10:29:29;17.75;;;10.57;;
63201;SDS011;49296;48.188;11.566;2024-03-02T10:31:55;18.13;;;10.68;;
63201;SDS011;49296;48.188;11.566;2024-03-02T10:34:24;16.27;;;9.73;;
63201;SDS011;49296;48.188;11.566;2024-03-02T10:36:51;18.25;;;10.90;;
63201;SDS011;49296;48.188;11.566;2024-03-02T10:39:20;16.75;;;9.98;;
63201;SDS011;49296;48.188;11.566;2024-03-02T10:41:49;17.13;;;9.50;;
63201;SDS011;49296;48.188;11.566;2024-03-02T10:44:18;17.45;;;10.48;;
63201;SDS011;49296;48.188;11.566;2024-03-02T10:46:45;14.55;;;9.60;;
63201;SDS011;49296;48.188;11.566;2024-03-02T10:49:13;17.67;;;9.77;;
63201;SDS011;49296;48.188;11.566;2024-03-02T10:51:40;15.50;;;9.32;;
63201;SDS011;49296;48.188;11.566;2024-03-02T10:54:07;19.42;;;11.20;;
63201;SDS011;49296;48.188;11.566;2024-03-02T10:56:38;18.30;;;11.25;;
63201;SDS011;49296;48.188;11.566;2024-03-02T10:59:06;20.05;;;11.23;;
63201;SDS011;49296;48.188;11.566;2024-03-02T11:01:40;18.77;;;11.70;;
63201;SDS011;49296;48.188;11.566;2024-03-02T11:04:11;17.35;;;10.73;;
63201;SDS011;49296;48.188;11.566;2024-03-02T11:09:10;15.55;;;9.73;;
63201;SDS011;49296;48.188;11.566;2024-03-02T11:11:40;17.25;;;9.77;;
63201;SDS011;49296;48.188;11.566;2024-03-02T11:16:39;14.67;;;9.20;;
63201;SDS011;49296;48.188;11.566;2024-03-02T11:19:07;17.85;;;10.45;;
63201;SDS011;49296;48.188;11.566;2024-03-02T11:21:37;19.48;;;11.77;;
63201;SDS011;49296;48.188;11.566;2024-03-02T11:27:01;23.02;;;12.55;;
63201;SDS011;49296;48.188;11.566;2024-03-02T11:29:45;20.35;;;11.90;;
63201;SDS011;49296;48.188;11.566;2024-03-02T11:32:16;22.60;;;14.68;;
63201;SDS011;49296;48.188;11.566;2024-03-02T11:34:45;21.00;;;11.68;;
63201;SDS011;49296;48.188;11.566;2024-03-02T11:37:13;20.77;;;12.23;;
63201;SDS011;49296;48.188;11.566;2024-03-02T11:39:42;20.92;;;12.57;;
63201;SDS011;49296;48.188;11.566;2024-03-02T11:42:12;22.60;;;13.77;;
63201;SDS011;49296;48.188;11.566;2024-03-02T11:44:41;21.08;;;12.75;;
63201;SDS011;49296;48.188;11.566;2024-03-02T11:47:10;22.52;;;13.15;;
63201;SDS011;49296;48.188;11.566;2024-03-02T11:49:40;21.77;;;12.43;;
63201;SDS011;49296;48.188;11.566;2024-03-02T11:52:10;19.83;;;12.88;;
63201;SDS011;49296;48.188;11.566;2024-03-02T11:54:37;22.63;;;12.50;;
63201;SDS011;49296;48.188;11.566;2024-03-02T11:57:05;18.33;;;12.25;;
63201;SDS011;49296;48.188;11.566;2024-03-02T11:59:34;19.83;;;12.35;;
63201;SDS011;49296;48.188;11.566;2024-03-02T12:02:01;22.65;;;11.75;;
63201;SDS011;49296;48.188;11.566;2024-03-02T12:04:29;20.48;;;12.75;;
63201;SDS011;49296;48.188;11.566;2024-03-02T12:06:58;19.73;;;11.70;;
63201;SDS011;49296;48.188;11.566;2024-03-02T12:09:26;21.20;;;13.10;;
63201;SDS011;49296;48.188;11.566;2024-03-02T12:12:03;22.17;;;13.00;;
63201;SDS011;49296;48.188;11.566;2024-03-02T12:14:30;20.15;;;11.50;;
63201;SDS011;49296;48.188;11.566;2024-03-02T12:16:59;19.67;;;11.48;;
63201;SDS011;49296;48.188;11.566;2024-03-02T12:19:26;20.38;;;11.98;;
63201;SDS011;49296;48.188;11.566;2024-03-02T12:21:55;15.65;;;10.45;;
63201;SDS011;49296;48.188;11.566;2024-03-02T12:24:21;17.17;;;11.75;;
63201;SDS011;49296;48.188;11.566;2024-03-02T12:26:49;21.17;;;12.60;;
63201;SDS011;49296;48.188;11.566;2024-03-02T12:29:16;18.55;;;10.93;;
63201;SDS011;49296;48.188;11.566;2024-03-02T12:31:44;22.05;;;12.23;;
63201;SDS011;49296;48.188;11.566;2024-03-02T12:34:12;24.33;;;12.30;;
63201;SDS011;49296;48.188;11.566;2024-03-02T12:36:40;19.23;;;11.35;;
63201;SDS011;49296;48.188;11.566;2024-03-02T12:39:07;18.80;;;11.00;;
63201;SDS011;49296;48.188;11.566;2024-03-02T12:41:35;17.73;;;11.18;;
63201;SDS011;49296;48.188;11.566;2024-03-02T12:44:02;26.48;;;15.00;;
63201;SDS011;49296;48.188;11.566;2024-03-02T12:46:29;24.10;;;14.43;;
63201;SDS011;49296;48.188;11.566;2024-03-02T12:48:56;21.30;;;12.90;;
63201;SDS011;49296;48.188;11.566;2024-03-02T12:51:25;17.83;;;11.45;;
63201;SDS011;49296;48.188;11.566;2024-03-02T12:53:53;16.88;;;11.55;;
63201;SDS011;49296;48.188;11.566;2024-03-02T12:56:20;15.63;;;9.82;;
63201;SDS011;49296;48.188;11.566;2024-03-02T12:58:47;16.05;;;10.48;;
63201;SDS011;49296;48.188;11.566;2024-03-02T13:01:14;15.35;;;9.85;;
63201;SDS011;49296;48.188;11.566;2024-03-02T13:03:44;16.15;;;10.60;;
63201;SDS011;49296;48.188;11.566;2024-03-02T13:06:10;19.23;;;12.30;;
63201;SDS011;49296;48.188;11.566;2024-03-02T13:08:39;16.92;;;11.85;;
63201;SDS011;49296;48.188;11.566;2024-03-02T13:11:05;17.38;;;11.25;;
63201;SDS011;49296;48.188;11.566;2024-03-02T13:13:32;18.40;;;11.63;;
63201;SDS011;49296;48.188;11.566;2024-03-02T13:16:00;17.52;;;11.52;;
63201;SDS011;49296;48.188;11.566;2024-03-02T13:18:28;15.57;;;11.10;;
63201;SDS011;49296;48.188;11.566;2024-03-02T13:20:56;18.27;;;11.68;;
63201;SDS011;49296;48.188;11.566;2024-03-02T13:23:23;18.98;;;12.25;;
63201;SDS011;49296;48.188;11.566;2024-03-02T13:25:51;18.30;;;11.25;;
63201;SDS011;49296;48.188;11.566;2024-03-02T13:28:17;17.83;;;12.38;;
63201;SDS011;49296;48.188;11.566;2024-03-02T13:30:44;18.13;;;12.10;;
63201;SDS011;49296;48.188;11.566;2024-03-02T13:33:11;15.85;;;10.05;;
63201;SDS011;49296;48.188;11.566;2024-03-02T13:35:37;12.75;;;8.45;;
63201;SDS011;49296;48.188;11.566;2024-03-02T13:38:04;16.55;;;9.68;;
63201;SDS011;49296;48.188;11.566;2024-03-02T13:40:31;16.15;;;10.70;;
63201;SDS011;49296;48.188;11.566;2024-03-02T13:43:02;15.50;;;9.52;;
63201;SDS011;49296;48.188;11.566;2024-03-02T13:45:28;15.07;;;9.90;;
63201;SDS011;49296;48.188;11.566;2024-03-02T13:47:55;17.00;;;9.90;;
63201;SDS011;49296;48.188;11.566;2024-03-02T13:50:22;17.20;;;10.75;;
63201;SDS011;49296;48.188;11.566;2024-03-02T13:52:49;15.13;;;10.15;;
63201;SDS011;49296;48.188;11.566;2024-03-02T13:55:15;14.48;;;10.05;;
63201;SDS011;49296;48.188;11.566;2024-03-02T13:57:42;15.70;;;10.43;;
63201;SDS011;49296;48.188;11.566;2024-03-02T14:00:11;15.77;;;9.85;;
63201;SDS011;49296;48.188;11.566;2024-03-02T14:02:38;15.68;;;10.25;;
63201;SDS011;49296;48.188;11.566;2024-03-02T14:05:06;15.45;;;9.85;;
63201;SDS011;49296;48.188;11.566;2024-03-02T14:07:35;16.75;;;9.93;;
63201;SDS011;49296;48.188;11.566;2024-03-02T14:10:03;16.70;;;9.95;;
63201;SDS011;49296;48.188;11.566;2024-03-02T14:12:31;14.45;;;8.80;;
63201;SDS011;49296;48.188;11.566;2024-03-02T14:14:57;15.23;;;9.52;;
63201;SDS011;49296;48.188;11.566;2024-03-02T14:17:28;17.40;;;9.93;;
63201;SDS011;49296;48.188;11.566;2024-03-02T14:19:56;15.97;;;10.00;;
63201;SDS011;49296;48.188;11.566;2024-03-02T14:22:24;16.40;;;9.73;;
63201;SDS011;49296;48.188;11.566;2024-03-02T14:24:50;16.30;;;9.38;;
63201;SDS011;49296;48.188;11.566;2024-03-02T14:27:17;15.57;;;8.88;;
63201;SDS011;49296;48.188;11.566;2024-03-02T14:29:44;13.07;;;8.35;;